sensor_id;sensor_type;location;lat;lon;timestamp;temperature;humidity
22006;DHT22;11167;46.988;15.470;2023-01-15T00:01:15;5.70;83.80
22006;DHT22;11167;46.988;15.470;2023-01-15T00:03:08;5.70;83.80
22006;DHT22;11167;46.988;15.470;2023-01-15T00:05:09;5.70;83.80
22006;DHT22;11167;46.988;15.470;2023-01-15T00:07:11;5.60;83.80
22006;DHT22;11167;46.988;15.470;2023-01-15T00:09:15;5.60;83.80
22006;DHT22;11167;46.988;15.470;2023-01-15T00:11:17;5.60;83.80
22006;DHT22;11167;46.988;15.470;2023-01-15T00:13:18;5.60;83.80
22006;DHT22;11167;46.988;15.470;2023-01-15T00:15:20;5.60;83.90
22006;DHT22;11167;46.988;15.470;2023-01-15T00:17:21;5.60;83.90
22006;DHT22;11167;46.988;15.470;2023-01-15T00:19:22;5.60;84.00
22006;DHT22;11167;46.988;15.470;2023-01-15T00:21:25;5.60;83.90
22006;DHT22;11167;46.988;15.470;2023-01-15T00:23:26;5.60;84.00
22006;DHT22;11167;46.988;15.470;2023-01-15T00:25:45;5.60;84.00
22006;DHT22;11167;46.988;15.470;2023-01-15T00:28:05;5.50;83.90
22006;DHT22;11167;46.988;15.470;2023-01-15T00:30:09;5.50;84.00
22006;DHT22;11167;46.988;15.470;2023-01-15T00:32:10;5.50;84.00
22006;DHT22;11167;46.988;15.470;2023-01-15T00:34:11;5.50;84.00
22006;DHT22;11167;46.988;15.470;2023-01-15T00:36:12;5.50;84.00
22006;DHT22;11167;46.988;15.470;2023-01-15T00:38:13;5.50;84.80
22006;DHT22;11167;46.988;15.470;2023-01-15T00:40:16;5.50;84.80
22006;DHT22;11167;46.988;15.470;2023-01-15T00:42:18;5.50;84.00
22006;DHT22;11167;46.988;15.470;2023-01-15T00:44:19;5.40;84.00
22006;DHT22;11167;46.988;15.470;2023-01-15T00:46:21;5.40;84.00
22006;DHT22;11167;46.988;15.470;2023-01-15T00:48:22;5.40;84.00
22006;DHT22;11167;46.988;15.470;2023-01-15T00:50:23;5.40;84.00
22006;DHT22;11167;46.988;15.470;2023-01-15T00:52:24;5.40;84.20
22006;DHT22;11167;46.988;15.470;2023-01-15T00:54:25;5.40;84.00
22006;DHT22;11167;46.988;15.470;2023-01-15T00:56:27;5.40;84.10
22006;DHT22;11167;46.988;15.470;2023-01-15T00:58:28;5.40;84.10
22006;DHT22;11167;46.988;15.470;2023-01-15T01:00:30;5.40;84.10
22006;DHT22;11167;46.988;15.470;2023-01-15T01:02:31;5.40;84.20
22006;DHT22;11167;46.988;15.470;2023-01-15T01:04:32;5.40;84.20
22006;DHT22;11167;46.988;15.470;2023-01-15T01:06:33;5.40;84.20
22006;DHT22;11167;46.988;15.470;2023-01-15T01:08:34;5.40;84.20
22006;DHT22;11167;46.988;15.470;2023-01-15T01:10:36;5.30;84.10
22006;DHT22;11167;46.988;15.470;2023-01-15T01:12:37;5.30;84.20
22006;DHT22;11167;46.988;15.470;2023-01-15T01:14:38;5.30;84.20
22006;DHT22;11167;46.988;15.470;2023-01-15T01:16:40;5.30;84.20
22006;DHT22;11167;46.988;15.470;2023-01-15T01:18:42;5.30;84.20
22006;DHT22;11167;46.988;15.470;2023-01-15T01:20:43;5.30;84.20
22006;DHT22;11167;46.988;15.470;2023-01-15T01:22:47;5.30;84.20
22006;DHT22;11167;46.988;15.470;2023-01-15T01:24:48;5.30;84.20
22006;DHT22;11167;46.988;15.470;2023-01-15T01:26:49;5.30;84.40
22006;DHT22;11167;46.988;15.470;2023-01-15T01:28:52;5.30;84.30
22006;DHT22;11167;46.988;15.470;2023-01-15T01:30:53;5.30;84.30
22006;DHT22;11167;46.988;15.470;2023-01-15T01:32:54;5.20;84.30
22006;DHT22;11167;46.988;15.470;2023-01-15T01:34:55;5.30;85.10
22006;DHT22;11167;46.988;15.470;2023-01-15T01:36:57;5.20;84.30
22006;DHT22;11167;46.988;15.470;2023-01-15T01:39:00;5.20;84.30
22006;DHT22;11167;46.988;15.470;2023-01-15T01:41:01;5.20;84.30
22006;DHT22;11167;46.988;15.470;2023-01-15T01:43:02;5.20;84.30
22006;DHT22;11167;46.988;15.470;2023-01-15T01:45:08;5.20;84.40
22006;DHT22;11167;46.988;15.470;2023-01-15T01:47:14;5.20;84.40
22006;DHT22;11167;46.988;15.470;2023-01-15T01:49:16;5.20;84.50
22006;DHT22;11167;46.988;15.470;2023-01-15T01:51:18;5.20;84.50
22006;DHT22;11167;46.988;15.470;2023-01-15T01:53:23;5.20;84.50
22006;DHT22;11167;46.988;15.470;2023-01-15T01:55:25;5.20;84.50
22006;DHT22;11167;46.988;15.470;2023-01-15T01:57:27;5.20;84.50
22006;DHT22;11167;46.988;15.470;2023-01-15T01:59:29;5.20;84.50
22006;DHT22;11167;46.988;15.470;2023-01-15T02:01:31;5.10;84.50
22006;DHT22;11167;46.988;15.470;2023-01-15T02:03:34;5.10;84.50
22006;DHT22;11167;46.988;15.470;2023-01-15T02:05:43;5.20;84.60
22006;DHT22;11167;46.988;15.470;2023-01-15T02:07:44;5.10;84.60
22006;DHT22;11167;46.988;15.470;2023-01-15T02:09:47;5.10;84.50
22006;DHT22;11167;46.988;15.470;2023-01-15T02:11:49;5.10;84.50
22006;DHT22;11167;46.988;15.470;2023-01-15T02:14:06;5.10;84.60
22006;DHT22;11167;46.988;15.470;2023-01-15T02:16:19;5.10;84.90
22006;DHT22;11167;46.988;15.470;2023-01-15T02:27:11;5.10;84.70
22006;DHT22;11167;46.988;15.470;2023-01-15T02:29:18;5.00;84.70
22006;DHT22;11167;46.988;15.470;2023-01-15T02:31:29;5.00;84.70
22006;DHT22;11167;46.988;15.470;2023-01-15T02:33:34;5.00;84.70
22006;DHT22;11167;46.988;15.470;2023-01-15T02:35:53;5.00;84.70
22006;DHT22;11167;46.988;15.470;2023-01-15T02:37:58;5.00;84.80
22006;DHT22;11167;46.988;15.470;2023-01-15T02:40:00;5.00;84.70
22006;DHT22;11167;46.988;15.470;2023-01-15T02:42:04;5.00;84.80
22006;DHT22;11167;46.988;15.470;2023-01-15T02:44:09;5.00;84.80
22006;DHT22;11167;46.988;15.470;2023-01-15T02:46:13;5.00;84.80
22006;DHT22;11167;46.988;15.470;2023-01-15T02:48:17;5.00;84.80
22006;DHT22;11167;46.988;15.470;2023-01-15T02:50:25;5.00;84.90
22006;DHT22;11167;46.988;15.470;2023-01-15T02:52:27;5.00;85.70
22006;DHT22;11167;46.988;15.470;2023-01-15T02:54:36;5.00;85.00
22006;DHT22;11167;46.988;15.470;2023-01-15T02:56:36;5.00;84.90
22006;DHT22;11167;46.988;15.470;2023-01-15T02:58:40;5.00;85.00
22006;DHT22;11167;46.988;15.470;2023-01-15T03:00:44;5.00;84.90
22006;DHT22;11167;46.988;15.470;2023-01-15T03:03:02;4.90;84.90
22006;DHT22;11167;46.988;15.470;2023-01-15T03:05:14;4.90;84.90
22006;DHT22;11167;46.988;15.470;2023-01-15T03:09:28;4.90;84.90
22006;DHT22;11167;46.988;15.470;2023-01-15T03:11:33;4.90;84.90
22006;DHT22;11167;46.988;15.470;2023-01-15T03:18:12;4.90;85.00
22006;DHT22;11167;46.988;15.470;2023-01-15T03:20:23;4.90;85.00
22006;DHT22;11167;46.988;15.470;2023-01-15T03:22:27;4.90;85.10
22006;DHT22;11167;46.988;15.470;2023-01-15T03:24:43;4.90;85.10
22006;DHT22;11167;46.988;15.470;2023-01-15T03:26:44;4.90;85.20
22006;DHT22;11167;46.988;15.470;2023-01-15T03:28:46;4.80;85.00
22006;DHT22;11167;46.988;15.470;2023-01-15T03:30:48;4.80;85.00
22006;DHT22;11167;46.988;15.470;2023-01-15T03:32:49;4.80;85.10
22006;DHT22;11167;46.988;15.470;2023-01-15T03:34:53;4.80;85.10
22006;DHT22;11167;46.988;15.470;2023-01-15T03:36:54;4.80;85.10
22006;DHT22;11167;46.988;15.470;2023-01-15T03:38:57;4.80;85.10
22006;DHT22;11167;46.988;15.470;2023-01-15T03:44:10;4.80;85.20
22006;DHT22;11167;46.988;15.470;2023-01-15T03:45:43;4.80;85.30
22006;DHT22;11167;46.988;15.470;2023-01-15T03:48:02;4.80;85.20
22006;DHT22;11167;46.988;15.470;2023-01-15T03:50:24;4.80;85.80
22006;DHT22;11167;46.988;15.470;2023-01-15T03:52:37;4.70;85.30
22006;DHT22;11167;46.988;15.470;2023-01-15T03:59:32;4.70;85.40
22006;DHT22;11167;46.988;15.470;2023-01-15T04:01:33;4.70;85.40
22006;DHT22;11167;46.988;15.470;2023-01-15T04:03:36;4.70;85.40
22006;DHT22;11167;46.988;15.470;2023-01-15T04:05:38;4.70;85.50
22006;DHT22;11167;46.988;15.470;2023-01-15T04:07:40;4.70;85.40
22006;DHT22;11167;46.988;15.470;2023-01-15T04:09:42;4.70;85.40
22006;DHT22;11167;46.988;15.470;2023-01-15T04:11:43;4.70;85.40
22006;DHT22;11167;46.988;15.470;2023-01-15T04:13:44;4.70;85.40
22006;DHT22;11167;46.988;15.470;2023-01-15T04:15:45;4.70;85.40
22006;DHT22;11167;46.988;15.470;2023-01-15T04:17:46;4.70;85.40
22006;DHT22;11167;46.988;15.470;2023-01-15T04:19:48;4.60;85.40
22006;DHT22;11167;46.988;15.470;2023-01-15T04:21:49;4.70;85.40
22006;DHT22;11167;46.988;15.470;2023-01-15T04:23:50;4.60;85.40
22006;DHT22;11167;46.988;15.470;2023-01-15T04:25:51;4.60;85.40
22006;DHT22;11167;46.988;15.470;2023-01-15T04:27:53;4.60;85.40
22006;DHT22;11167;46.988;15.470;2023-01-15T04:29:55;4.60;85.50
22006;DHT22;11167;46.988;15.470;2023-01-15T04:31:56;4.60;85.40
22006;DHT22;11167;46.988;15.470;2023-01-15T04:33:57;4.60;85.50
22006;DHT22;11167;46.988;15.470;2023-01-15T04:36:00;4.60;85.50
22006;DHT22;11167;46.988;15.470;2023-01-15T04:38:02;4.60;85.50
22006;DHT22;11167;46.988;15.470;2023-01-15T04:40:04;4.60;85.50
22006;DHT22;11167;46.988;15.470;2023-01-15T04:42:05;4.60;85.50
22006;DHT22;11167;46.988;15.470;2023-01-15T04:44:25;4.60;85.50
22006;DHT22;11167;46.988;15.470;2023-01-15T04:46:28;4.60;85.60
22006;DHT22;11167;46.988;15.470;2023-01-15T04:48:29;4.60;85.60
22006;DHT22;11167;46.988;15.470;2023-01-15T04:50:31;4.50;85.50
22006;DHT22;11167;46.988;15.470;2023-01-15T04:52:32;4.50;85.60
22006;DHT22;11167;46.988;15.470;2023-01-15T04:54:33;4.50;85.60
22006;DHT22;11167;46.988;15.470;2023-01-15T04:56:40;4.50;85.60
22006;DHT22;11167;46.988;15.470;2023-01-15T04:58:41;4.50;85.60
22006;DHT22;11167;46.988;15.470;2023-01-15T05:00:42;4.50;85.60
22006;DHT22;11167;46.988;15.470;2023-01-15T05:02:44;4.50;85.70
22006;DHT22;11167;46.988;15.470;2023-01-15T05:04:45;4.50;85.60
22006;DHT22;11167;46.988;15.470;2023-01-15T05:06:46;4.50;85.60
22006;DHT22;11167;46.988;15.470;2023-01-15T05:08:49;4.50;85.70
22006;DHT22;11167;46.988;15.470;2023-01-15T05:10:50;4.50;85.60
22006;DHT22;11167;46.988;15.470;2023-01-15T05:12:51;4.50;85.70
22006;DHT22;11167;46.988;15.470;2023-01-15T05:14:53;4.50;85.60
22006;DHT22;11167;46.988;15.470;2023-01-15T05:16:54;4.40;85.60
22006;DHT22;11167;46.988;15.470;2023-01-15T05:19:00;4.40;86.00
22006;DHT22;11167;46.988;15.470;2023-01-15T05:21:04;4.40;85.60
22006;DHT22;11167;46.988;15.470;2023-01-15T05:23:06;4.40;85.70
22006;DHT22;11167;46.988;15.470;2023-01-15T05:25:07;4.40;85.80
22006;DHT22;11167;46.988;15.470;2023-01-15T05:27:08;4.40;85.80
22006;DHT22;11167;46.988;15.470;2023-01-15T05:29:11;4.40;85.80
22006;DHT22;11167;46.988;15.470;2023-01-15T05:31:15;4.40;85.80
22006;DHT22;11167;46.988;15.470;2023-01-15T05:33:16;4.40;85.80
22006;DHT22;11167;46.988;15.470;2023-01-15T05:35:17;4.40;85.80
22006;DHT22;11167;46.988;15.470;2023-01-15T05:37:18;4.30;86.60
22006;DHT22;11167;46.988;15.470;2023-01-15T05:39:20;4.30;85.80
22006;DHT22;11167;46.988;15.470;2023-01-15T05:41:21;4.30;85.80
22006;DHT22;11167;46.988;15.470;2023-01-15T05:43:41;4.30;85.90
22006;DHT22;11167;46.988;15.470;2023-01-15T05:45:42;4.30;85.90
22006;DHT22;11167;46.988;15.470;2023-01-15T05:47:43;4.30;85.90
22006;DHT22;11167;46.988;15.470;2023-01-15T05:49:44;4.30;85.90
22006;DHT22;11167;46.988;15.470;2023-01-15T05:51:48;4.30;85.90
22006;DHT22;11167;46.988;15.470;2023-01-15T05:53:49;4.30;85.90
22006;DHT22;11167;46.988;15.470;2023-01-15T05:55:51;4.20;85.90
22006;DHT22;11167;46.988;15.470;2023-01-15T05:57:52;4.30;85.90
22006;DHT22;11167;46.988;15.470;2023-01-15T05:59:53;4.30;85.90
22006;DHT22;11167;46.988;15.470;2023-01-15T06:01:55;4.30;85.90
22006;DHT22;11167;46.988;15.470;2023-01-15T06:03:59;4.30;85.90
22006;DHT22;11167;46.988;15.470;2023-01-15T06:06:00;4.20;85.90
22006;DHT22;11167;46.988;15.470;2023-01-15T06:08:02;4.20;86.00
22006;DHT22;11167;46.988;15.470;2023-01-15T06:10:03;4.20;86.00
22006;DHT22;11167;46.988;15.470;2023-01-15T06:12:05;4.20;86.10
22006;DHT22;11167;46.988;15.470;2023-01-15T06:14:07;4.20;86.10
22006;DHT22;11167;46.988;15.470;2023-01-15T06:16:08;4.20;86.10
22006;DHT22;11167;46.988;15.470;2023-01-15T06:18:12;4.20;86.10
22006;DHT22;11167;46.988;15.470;2023-01-15T06:20:13;4.20;86.10
22006;DHT22;11167;46.988;15.470;2023-01-15T06:22:14;4.20;86.10
22006;DHT22;11167;46.988;15.470;2023-01-15T06:24:15;4.20;86.10
22006;DHT22;11167;46.988;15.470;2023-01-15T06:26:17;4.10;86.00
22006;DHT22;11167;46.988;15.470;2023-01-15T06:28:18;4.10;86.10
22006;DHT22;11167;46.988;15.470;2023-01-15T06:30:20;4.10;86.10
22006;DHT22;11167;46.988;15.470;2023-01-15T06:32:21;4.10;86.20
22006;DHT22;11167;46.988;15.470;2023-01-15T06:34:22;4.10;86.20
22006;DHT22;11167;46.988;15.470;2023-01-15T06:36:24;4.10;85.90
22006;DHT22;11167;46.988;15.470;2023-01-15T06:38:26;4.10;86.20
22006;DHT22;11167;46.988;15.470;2023-01-15T06:40:27;4.10;86.20
22006;DHT22;11167;46.988;15.470;2023-01-15T06:42:28;4.10;86.30
22006;DHT22;11167;46.988;15.470;2023-01-15T06:44:48;4.10;86.20
22006;DHT22;11167;46.988;15.470;2023-01-15T06:47:15;4.10;86.30
22006;DHT22;11167;46.988;15.470;2023-01-15T06:49:22;4.10;86.30
22006;DHT22;11167;46.988;15.470;2023-01-15T06:51:24;4.00;86.30
22006;DHT22;11167;46.988;15.470;2023-01-15T06:53:25;4.00;86.30
22006;DHT22;11167;46.988;15.470;2023-01-15T06:55:26;4.00;86.30
22006;DHT22;11167;46.988;15.470;2023-01-15T06:57:27;4.00;86.30
22006;DHT22;11167;46.988;15.470;2023-01-15T06:59:28;4.00;86.40
22006;DHT22;11167;46.988;15.470;2023-01-15T07:01:29;4.00;86.40
22006;DHT22;11167;46.988;15.470;2023-01-15T07:03:31;4.00;86.40
22006;DHT22;11167;46.988;15.470;2023-01-15T07:05:32;4.00;86.40
22006;DHT22;11167;46.988;15.470;2023-01-15T07:07:33;4.00;85.60
22006;DHT22;11167;46.988;15.470;2023-01-15T07:09:35;4.00;86.90
22006;DHT22;11167;46.988;15.470;2023-01-15T07:11:36;4.00;86.30
22006;DHT22;11167;46.988;15.470;2023-01-15T07:13:39;4.00;86.50
22006;DHT22;11167;46.988;15.470;2023-01-15T07:15:40;4.00;86.40
22006;DHT22;11167;46.988;15.470;2023-01-15T07:17:41;4.00;86.50
22006;DHT22;11167;46.988;15.470;2023-01-15T07:19:44;4.00;86.40
22006;DHT22;11167;46.988;15.470;2023-01-15T07:21:46;4.00;86.50
22006;DHT22;11167;46.988;15.470;2023-01-15T07:23:49;4.00;86.50
22006;DHT22;11167;46.988;15.470;2023-01-15T07:25:52;3.90;86.50
22006;DHT22;11167;46.988;15.470;2023-01-15T07:27:53;3.90;86.50
22006;DHT22;11167;46.988;15.470;2023-01-15T07:29:54;3.90;86.50
22006;DHT22;11167;46.988;15.470;2023-01-15T07:31:55;3.90;86.50
22006;DHT22;11167;46.988;15.470;2023-01-15T07:33:56;3.90;86.50
22006;DHT22;11167;46.988;15.470;2023-01-15T07:36:03;3.90;86.50
22006;DHT22;11167;46.988;15.470;2023-01-15T07:38:04;3.90;86.50
22006;DHT22;11167;46.988;15.470;2023-01-15T07:40:06;3.90;86.50
22006;DHT22;11167;46.988;15.470;2023-01-15T07:42:09;3.90;86.50
22006;DHT22;11167;46.988;15.470;2023-01-15T07:44:29;3.90;86.50
22006;DHT22;11167;46.988;15.470;2023-01-15T07:46:48;3.90;86.50
22006;DHT22;11167;46.988;15.470;2023-01-15T07:49:10;3.90;86.50
22006;DHT22;11167;46.988;15.470;2023-01-15T07:51:30;3.90;86.50
22006;DHT22;11167;46.988;15.470;2023-01-15T07:53:31;3.90;86.60
22006;DHT22;11167;46.988;15.470;2023-01-15T07:55:34;3.90;86.60
22006;DHT22;11167;46.988;15.470;2023-01-15T07:57:36;3.90;86.50
22006;DHT22;11167;46.988;15.470;2023-01-15T07:59:38;3.90;86.60
22006;DHT22;11167;46.988;15.470;2023-01-15T08:01:39;3.90;86.50
22006;DHT22;11167;46.988;15.470;2023-01-15T08:03:40;3.90;86.60
22006;DHT22;11167;46.988;15.470;2023-01-15T08:05:41;3.90;86.60
22006;DHT22;11167;46.988;15.470;2023-01-15T08:07:43;3.90;86.60
22006;DHT22;11167;46.988;15.470;2023-01-15T08:09:45;3.90;86.60
22006;DHT22;11167;46.988;15.470;2023-01-15T08:11:46;3.90;86.60
22006;DHT22;11167;46.988;15.470;2023-01-15T08:14:05;3.90;86.60
22006;DHT22;11167;46.988;15.470;2023-01-15T08:16:25;3.90;86.60
22006;DHT22;11167;46.988;15.470;2023-01-15T08:18:26;3.90;86.60
22006;DHT22;11167;46.988;15.470;2023-01-15T08:20:27;3.90;86.60
22006;DHT22;11167;46.988;15.470;2023-01-15T08:22:28;3.90;86.60
22006;DHT22;11167;46.988;15.470;2023-01-15T08:24:29;3.90;86.60
22006;DHT22;11167;46.988;15.470;2023-01-15T08:26:31;3.90;86.60
22006;DHT22;11167;46.988;15.470;2023-01-15T08:28:32;3.90;87.40
22006;DHT22;11167;46.988;15.470;2023-01-15T08:30:33;3.90;86.60
22006;DHT22;11167;46.988;15.470;2023-01-15T08:32:34;4.00;87.50
22006;DHT22;11167;46.988;15.470;2023-01-15T08:34:35;3.90;86.50
22006;DHT22;11167;46.988;15.470;2023-01-15T08:36:36;4.00;86.60
22006;DHT22;11167;46.988;15.470;2023-01-15T08:38:38;4.00;86.60
22006;DHT22;11167;46.988;15.470;2023-01-15T08:40:39;4.00;86.60
22006;DHT22;11167;46.988;15.470;2023-01-15T08:42:42;4.00;86.60
22006;DHT22;11167;46.988;15.470;2023-01-15T08:44:43;4.00;86.60
22006;DHT22;11167;46.988;15.470;2023-01-15T08:46:44;4.00;86.70
22006;DHT22;11167;46.988;15.470;2023-01-15T08:48:45;4.00;86.60
22006;DHT22;11167;46.988;15.470;2023-01-15T08:50:48;4.00;86.70
22006;DHT22;11167;46.988;15.470;2023-01-15T08:52:50;4.00;86.60
22006;DHT22;11167;46.988;15.470;2023-01-15T08:54:51;4.10;86.60
22006;DHT22;11167;46.988;15.470;2023-01-15T08:56:52;4.10;86.60
22006;DHT22;11167;46.988;15.470;2023-01-15T08:58:53;4.10;86.60
22006;DHT22;11167;46.988;15.470;2023-01-15T09:00:54;4.10;86.80
22006;DHT22;11167;46.988;15.470;2023-01-15T09:02:56;4.10;86.60
22006;DHT22;11167;46.988;15.470;2023-01-15T09:04:57;4.10;86.70
22006;DHT22;11167;46.988;15.470;2023-01-15T09:06:58;4.10;86.70
22006;DHT22;11167;46.988;15.470;2023-01-15T09:09:01;4.10;86.60
22006;DHT22;11167;46.988;15.470;2023-01-15T09:11:03;4.10;86.60
22006;DHT22;11167;46.988;15.470;2023-01-15T09:13:05;4.10;86.60
22006;DHT22;11167;46.988;15.470;2023-01-15T09:15:06;4.20;86.70
22006;DHT22;11167;46.988;15.470;2023-01-15T09:17:08;4.20;86.70
22006;DHT22;11167;46.988;15.470;2023-01-15T09:19:09;4.20;86.70
22006;DHT22;11167;46.988;15.470;2023-01-15T09:21:10;4.20;86.70
22006;DHT22;11167;46.988;15.470;2023-01-15T09:23:12;4.20;87.60
22006;DHT22;11167;46.988;15.470;2023-01-15T09:25:13;4.20;86.70
22006;DHT22;11167;46.988;15.470;2023-01-15T09:27:16;4.20;86.70
22006;DHT22;11167;46.988;15.470;2023-01-15T09:29:17;4.30;86.80
22006;DHT22;11167;46.988;15.470;2023-01-15T09:31:18;4.30;86.90
22006;DHT22;11167;46.988;15.470;2023-01-15T09:33:19;4.30;86.80
22006;DHT22;11167;46.988;15.470;2023-01-15T09:35:20;4.30;87.10
22006;DHT22;11167;46.988;15.470;2023-01-15T09:37:24;4.30;86.80
22006;DHT22;11167;46.988;15.470;2023-01-15T09:39:25;4.30;87.30
22006;DHT22;11167;46.988;15.470;2023-01-15T09:46:33;4.40;87.10
22006;DHT22;11167;46.988;15.470;2023-01-15T09:53:24;4.40;87.20
22006;DHT22;11167;46.988;15.470;2023-01-15T09:55:28;4.40;87.20
22006;DHT22;11167;46.988;15.470;2023-01-15T09:57:31;4.40;87.20
22006;DHT22;11167;46.988;15.470;2023-01-15T09:59:38;4.50;87.30
22006;DHT22;11167;46.988;15.470;2023-01-15T10:01:41;4.50;87.30
22006;DHT22;11167;46.988;15.470;2023-01-15T10:08:31;4.60;87.50
22006;DHT22;11167;46.988;15.470;2023-01-15T10:10:38;4.60;87.50
22006;DHT22;11167;46.988;15.470;2023-01-15T10:12:40;4.70;87.70
22006;DHT22;11167;46.988;15.470;2023-01-15T10:14:59;4.70;87.70
22006;DHT22;11167;46.988;15.470;2023-01-15T10:16:52;4.70;87.70
22006;DHT22;11167;46.988;15.470;2023-01-15T10:18:54;4.80;87.70
22006;DHT22;11167;46.988;15.470;2023-01-15T10:25:47;4.80;87.80
22006;DHT22;11167;46.988;15.470;2023-01-15T10:27:50;4.80;88.60
22006;DHT22;11167;46.988;15.470;2023-01-15T10:30:01;4.90;87.90
22006;DHT22;11167;46.988;15.470;2023-01-15T10:34:37;5.00;88.70
22006;DHT22;11167;46.988;15.470;2023-01-15T10:43:58;5.00;87.80
22006;DHT22;11167;46.988;15.470;2023-01-15T10:46:01;4.90;88.00
22006;DHT22;11167;46.988;15.470;2023-01-15T10:48:04;4.90;88.20
22006;DHT22;11167;46.988;15.470;2023-01-15T10:50:18;5.00;88.80
22006;DHT22;11167;46.988;15.470;2023-01-15T10:52:26;5.00;88.60
22006;DHT22;11167;46.988;15.470;2023-01-15T10:54:41;5.00;88.40
22006;DHT22;11167;46.988;15.470;2023-01-15T10:56:49;5.10;88.40
22006;DHT22;11167;46.988;15.470;2023-01-15T11:01:14;5.20;88.40
22006;DHT22;11167;46.988;15.470;2023-01-15T11:03:21;5.20;88.50
22006;DHT22;11167;46.988;15.470;2023-01-15T11:05:23;5.30;88.50
22006;DHT22;11167;46.988;15.470;2023-01-15T11:07:43;5.30;88.40
22006;DHT22;11167;46.988;15.470;2023-01-15T11:09:47;5.30;88.40
22006;DHT22;11167;46.988;15.470;2023-01-15T11:11:51;5.40;88.50
22006;DHT22;11167;46.988;15.470;2023-01-15T11:14:01;5.40;88.60
22006;DHT22;11167;46.988;15.470;2023-01-15T11:16:23;5.50;88.60
22006;DHT22;11167;46.988;15.470;2023-01-15T11:18:44;5.50;88.50
22006;DHT22;11167;46.988;15.470;2023-01-15T11:21:11;5.50;88.50
22006;DHT22;11167;46.988;15.470;2023-01-15T11:23:15;5.60;88.60
22006;DHT22;11167;46.988;15.470;2023-01-15T11:25:31;5.60;88.60
22006;DHT22;11167;46.988;15.470;2023-01-15T11:27:34;5.70;88.80
22006;DHT22;11167;46.988;15.470;2023-01-15T11:29:37;5.70;88.70
22006;DHT22;11167;46.988;15.470;2023-01-15T11:31:39;5.70;88.70
22006;DHT22;11167;46.988;15.470;2023-01-15T11:34:00;5.80;88.80
22006;DHT22;11167;46.988;15.470;2023-01-15T11:36:18;5.80;88.70
22006;DHT22;11167;46.988;15.470;2023-01-15T11:38:12;5.80;88.70
22006;DHT22;11167;46.988;15.470;2023-01-15T11:40:20;5.90;88.90
22006;DHT22;11167;46.988;15.470;2023-01-15T11:42:24;5.90;88.90
22006;DHT22;11167;46.988;15.470;2023-01-15T11:44:55;5.90;88.70
22006;DHT22;11167;46.988;15.470;2023-01-15T11:47:18;5.90;88.80
22006;DHT22;11167;46.988;15.470;2023-01-15T11:49:38;6.00;88.90
22006;DHT22;11167;46.988;15.470;2023-01-15T11:51:59;6.00;88.90
22006;DHT22;11167;46.988;15.470;2023-01-15T11:54:04;6.10;88.80
22006;DHT22;11167;46.988;15.470;2023-01-15T11:56:11;6.10;88.90
22006;DHT22;11167;46.988;15.470;2023-01-15T11:58:13;6.10;88.80
22006;DHT22;11167;46.988;15.470;2023-01-15T12:00:27;6.10;88.80
22006;DHT22;11167;46.988;15.470;2023-01-15T12:02:31;6.20;88.90
22006;DHT22;11167;46.988;15.470;2023-01-15T12:04:37;6.20;88.90
22006;DHT22;11167;46.988;15.470;2023-01-15T12:06:40;6.20;88.80
22006;DHT22;11167;46.988;15.470;2023-01-15T12:08:49;6.30;89.00
22006;DHT22;11167;46.988;15.470;2023-01-15T12:10:57;6.30;88.90
22006;DHT22;11167;46.988;15.470;2023-01-15T12:22:30;6.40;89.00
22006;DHT22;11167;46.988;15.470;2023-01-15T12:24:48;6.40;88.90
22006;DHT22;11167;46.988;15.470;2023-01-15T12:29:26;6.50;89.80
22006;DHT22;11167;46.988;15.470;2023-01-15T12:31:34;6.50;89.90
22006;DHT22;11167;46.988;15.470;2023-01-15T12:36:07;6.50;89.10
22006;DHT22;11167;46.988;15.470;2023-01-15T12:40:52;6.60;89.10
22006;DHT22;11167;46.988;15.470;2023-01-15T12:42:55;6.60;89.00
22006;DHT22;11167;46.988;15.470;2023-01-15T12:45:21;6.60;89.00
22006;DHT22;11167;46.988;15.470;2023-01-15T12:47:29;6.60;89.00
22006;DHT22;11167;46.988;15.470;2023-01-15T12:49:41;6.70;89.10
22006;DHT22;11167;46.988;15.470;2023-01-15T12:52:08;6.70;89.10
22006;DHT22;11167;46.988;15.470;2023-01-15T12:54:14;6.70;89.00
22006;DHT22;11167;46.988;15.470;2023-01-15T12:56:19;6.80;89.10
22006;DHT22;11167;46.988;15.470;2023-01-15T13:02:46;6.80;89.10
22006;DHT22;11167;46.988;15.470;2023-01-15T13:04:49;6.80;89.10
22006;DHT22;11167;46.988;15.470;2023-01-15T13:06:55;6.90;89.20
22006;DHT22;11167;46.988;15.470;2023-01-15T13:09:13;6.90;89.20
22006;DHT22;11167;46.988;15.470;2023-01-15T13:11:13;6.90;89.10
22006;DHT22;11167;46.988;15.470;2023-01-15T13:13:28;6.90;89.00
22006;DHT22;11167;46.988;15.470;2023-01-15T13:15:31;6.90;89.00
22006;DHT22;11167;46.988;15.470;2023-01-15T13:18:02;6.90;89.10
22006;DHT22;11167;46.988;15.470;2023-01-15T13:28:02;7.00;89.10
22006;DHT22;11167;46.988;15.470;2023-01-15T13:32:40;7.00;89.10
22006;DHT22;11167;46.988;15.470;2023-01-15T13:34:52;7.00;89.10
22006;DHT22;11167;46.988;15.470;2023-01-15T13:36:58;7.00;89.10
22006;DHT22;11167;46.988;15.470;2023-01-15T13:39:04;7.00;89.10
22006;DHT22;11167;46.988;15.470;2023-01-15T13:41:16;7.10;89.10
22006;DHT22;11167;46.988;15.470;2023-01-15T13:43:41;7.10;90.00
22006;DHT22;11167;46.988;15.470;2023-01-15T13:45:48;7.10;89.10
22006;DHT22;11167;46.988;15.470;2023-01-15T13:47:54;7.10;89.10
22006;DHT22;11167;46.988;15.470;2023-01-15T13:49:58;7.10;89.10
22006;DHT22;11167;46.988;15.470;2023-01-15T13:52:01;7.10;89.10
22006;DHT22;11167;46.988;15.470;2023-01-15T13:54:08;7.10;89.10
22006;DHT22;11167;46.988;15.470;2023-01-15T13:56:11;7.20;89.10
22006;DHT22;11167;46.988;15.470;2023-01-15T13:58:20;7.20;89.10
22006;DHT22;11167;46.988;15.470;2023-01-15T14:00:31;7.20;89.10
22006;DHT22;11167;46.988;15.470;2023-01-15T14:02:37;7.20;89.10
22006;DHT22;11167;46.988;15.470;2023-01-15T14:04:42;7.20;89.10
22006;DHT22;11167;46.988;15.470;2023-01-15T14:06:46;7.30;89.10
22006;DHT22;11167;46.988;15.470;2023-01-15T14:08:47;7.20;89.10
22006;DHT22;11167;46.988;15.470;2023-01-15T14:10:52;7.20;89.10
22006;DHT22;11167;46.988;15.470;2023-01-15T14:15:28;7.30;89.10
22006;DHT22;11167;46.988;15.470;2023-01-15T14:17:59;7.30;89.10
22006;DHT22;11167;46.988;15.470;2023-01-15T14:20:09;7.30;89.10
22006;DHT22;11167;46.988;15.470;2023-01-15T14:22:21;7.30;89.10
22006;DHT22;11167;46.988;15.470;2023-01-15T14:31:56;7.30;89.10
22006;DHT22;11167;46.988;15.470;2023-01-15T14:34:14;7.30;89.10
22006;DHT22;11167;46.988;15.470;2023-01-15T14:36:33;7.30;89.10
22006;DHT22;11167;46.988;15.470;2023-01-15T14:38:33;7.30;89.10
22006;DHT22;11167;46.988;15.470;2023-01-15T14:40:35;7.40;89.20
22006;DHT22;11167;46.988;15.470;2023-01-15T14:42:40;7.30;89.10
22006;DHT22;11167;46.988;15.470;2023-01-15T14:45:15;7.40;89.10